Time;durP1;ratioP1;P1;durP2;ratioP2;P2;SDS_P1;SDS_P2;PMS_P1;PMS_P2;Temp;Humidity;BMP_temperature;BMP_pressure;BME280_temperature;BME280_humidity;BME280_pressure;Samples;Min_cycle;Max_cycle;Signal;HPM_P1;HPM_P2
2023/01/17 00:00:36;;;;;;;16.20;8.27;;;8.90;99.90;;;;;;5033798;28;20053;-72
2023/01/17 00:03:03;;;;;;;18.60;8.88;;;9.00;99.90;;;;;;5033480;28;20028;-72
2023/01/17 00:10:58;;;;;;;16.15;7.22;;;9.00;99.90;;;;;;5031792;28;20036;-72
2023/01/17 00:13:24;;;;;;;14.10;7.55;;;9.00;99.90;;;;;;5033415;28;20021;-72
2023/01/17 00:15:50;;;;;;;16.45;7.28;;;9.00;99.90;;;;;;5033475;28;20499;-72
2023/01/17 00:18:16;;;;;;;19.25;8.52;;;9.00;99.90;;;;;;5033508;28;20492;-73
2023/01/17 00:26:17;;;;;;;14.45;8.18;;;8.90;99.90;;;;;;5033233;28;20033;-72
2023/01/17 01:35:53;;;;;;;14.02;7.38;;;8.70;99.90;;;;;;5032876;28;20053;-73
2023/01/17 01:38:21;;;;;;;14.73;7.28;;;8.70;99.90;;;;;;5032088;28;20036;-73
2023/01/17 01:40:50;;;;;;;15.90;8.10;;;8.70;99.90;;;;;;5032488;28;20108;-73
2023/01/17 01:43:19;;;;;;;18.13;8.60;;;8.70;99.90;;;;;;5030846;28;20113;-73
2023/01/17 01:45:56;;;;;;;14.30;6.93;;;8.70;99.90;;;;;;5032183;28;20144;-73
2023/01/17 01:48:35;;;;;;;16.05;7.68;;;8.60;99.90;;;;;;5029707;28;20045;-74
2023/01/17 01:51:08;;;;;;;13.77;7.22;;;8.60;99.90;;;;;;5020637;28;20041;-74
2023/01/17 01:53:35;;;;;;;;;;;8.60;99.90;;;;;;5029822;28;20038;-74
2023/01/17 01:56:04;;;;;;;21.45;10.02;;;8.60;99.90;;;;;;5034903;28;19912;-74
2023/01/17 01:58:35;;;;;;;24.00;12.73;;;8.60;99.90;;;;;;5036437;28;20017;-74
2023/01/17 02:01:01;;;;;;;14.73;7.35;;;8.60;99.90;;;;;;5035827;28;20499;-74
2023/01/17 02:03:29;;;;;;;12.77;6.55;;;8.50;99.90;;;;;;5034286;28;20072;-74
2023/01/17 02:06:01;;;;;;;11.63;5.93;;;8.50;99.90;;;;;;5035821;28;20021;-74
2023/01/17 02:08:27;;;;;;;11.95;6.00;;;8.50;99.90;;;;;;5035801;28;20416;-73
2023/01/17 02:10:53;;;;;;;13.00;6.22;;;8.60;99.90;;;;;;5035864;28;20028;-74
2023/01/17 02:13:20;;;;;;;12.43;5.70;;;8.60;99.90;;;;;;5035093;28;20026;-73
2023/01/17 02:15:58;;;;;;;14.85;6.25;;;8.60;99.90;;;;;;5035093;28;20036;-74
2023/01/17 02:18:45;;;;;;;14.18;6.90;;;8.70;99.90;;;;;;5035499;28;20111;-73
2023/01/17 02:21:32;;;;;;;9.30;5.03;;;8.70;99.90;;;;;;5024930;28;20057;-74
2023/01/17 02:24:07;;;;;;;13.35;5.53;;;8.80;99.90;;;;;;5035285;28;20056;-73
2023/01/17 02:26:47;;;;;;;10.45;4.75;;;8.80;99.90;;;;;;5035219;28;20025;-73
2023/01/17 02:29:40;;;;;;;12.60;5.63;;;8.90;99.90;;;;;;5024021;28;20132;-73
2023/01/17 02:32:23;;;;;;;10.60;5.35;;;8.90;99.90;;;;;;5034449;28;20021;-74
2023/01/17 02:34:52;;;;;;;;;;;8.90;99.90;;;;;;5034769;28;20488;-74
2023/01/17 02:37:32;;;;;;;10.63;5.43;;;8.90;99.90;;;;;;5035347;28;19908;-74
2023/01/17 02:40:30;;;;;;;11.82;5.20;;;8.90;99.90;;;;;;5034654;28;20037;-75
2023/01/17 02:43:01;;;;;;;11.88;5.47;;;8.80;99.90;;;;;;5029679;28;20025;-74
2023/01/17 02:45:28;;;;;;;7.75;4.22;;;8.80;99.90;;;;;;5035176;28;20030;-73
2023/01/17 02:47:53;;;;;;;12.13;4.53;;;8.70;99.90;;;;;;5034863;28;20175;-74
2023/01/17 02:50:38;;;;;;;9.23;4.78;;;8.50;99.90;;;;;;5035043;28;20493;-73
2023/01/17 02:53:19;;;;;;;7.43;4.18;;;8.60;99.90;;;;;;5031456;28;20469;-74
2023/01/17 02:56:13;;;;;;;9.98;4.72;;;8.50;99.90;;;;;;5034885;28;20030;-74
2023/01/17 02:59:10;;;;;;;7.60;3.97;;;8.50;99.90;;;;;;5034978;28;20025;-74
2023/01/17 03:01:39;;;;;;;8.98;4.78;;;8.50;99.90;;;;;;5033842;28;20030;-74
2023/01/17 03:04:12;;;;;;;6.57;3.33;;;8.50;99.90;;;;;;5029904;28;20028;-74
2023/01/17 03:07:01;;;;;;;7.32;4.18;;;8.50;99.90;;;;;;5034919;28;20029;-75
2023/01/17 03:09:29;;;;;;;8.02;4.18;;;8.60;99.90;;;;;;5034714;28;20393;-74
2023/01/17 03:11:58;;;;;;;9.75;4.88;;;8.60;99.90;;;;;;5034684;28;20021;-73
2023/01/17 03:14:24;;;;;;;10.77;4.82;;;8.60;99.90;;;;;;5022481;28;20049;-74
2023/01/17 03:16:49;;;;;;;11.57;5.88;;;8.60;99.90;;;;;;5034273;28;20107;-74
2023/01/17 03:19:15;;;;;;;9.75;5.22;;;8.60;99.90;;;;;;5021427;28;20033;-74
2023/01/17 03:21:41;;;;;;;12.98;5.82;;;8.60;99.90;;;;;;5033105;28;20029;-73
2023/01/17 03:24:07;;;;;;;13.48;5.35;;;8.60;99.90;;;;;;5034402;28;20376;-73
2023/01/17 03:26:33;;;;;;;13.50;6.28;;;8.60;99.90;;;;;;5034186;28;20449;-73
2023/01/17 03:28:59;;;;;;;14.32;7.28;;;8.70;99.90;;;;;;5034411;28;20034;-73
2023/01/17 03:31:25;;;;;;;17.75;8.30;;;8.60;99.90;;;;;;5032569;28;20473;-74
2023/01/17 03:33:51;;;;;;;14.68;7.60;;;8.60;99.90;;;;;;5033487;28;20040;-73
2023/01/17 03:36:19;;;;;;;21.42;12.88;;;8.60;99.90;;;;;;5034041;28;20507;-73
2023/01/17 03:38:44;;;;;;;23.85;12.57;;;8.60;99.90;;;;;;5034167;28;20022;-74
2023/01/17 03:41:10;;;;;;;20.10;11.20;;;8.60;99.90;;;;;;5033930;28;20103;-74
2023/01/17 03:43:36;;;;;;;18.05;9.40;;;8.60;99.90;;;;;;5034180;28;20021;-74
2023/01/17 03:46:04;;;;;;;14.65;7.72;;;8.60;99.90;;;;;;5032446;28;20105;-73
2023/01/17 03:48:30;;;;;;;16.67;8.20;;;8.60;99.90;;;;;;5033605;28;20055;-73
2023/01/17 03:50:57;;;;;;;14.63;7.38;;;8.60;99.90;;;;;;5033922;28;20026;-74
2023/01/17 03:53:23;;;;;;;10.23;5.85;;;8.60;99.90;;;;;;5034027;28;20071;-74
2023/01/17 03:55:48;;;;;;;17.48;9.18;;;8.50;99.90;;;;;;5031905;28;20017;-74
2023/01/17 03:58:15;;;;;;;31.15;14.93;;;8.50;99.90;;;;;;5033992;28;20022;-75
2023/01/17 04:00:41;;;;;;;28.48;16.00;;;8.30;99.90;;;;;;5033648;28;20411;-74
2023/01/17 04:03:07;;;;;;;25.27;13.20;;;8.20;99.90;;;;;;5033660;28;20254;-74
2023/01/17 04:05:33;;;;;;;17.45;9.73;;;8.20;99.90;;;;;;5033529;28;20030;-74
2023/01/17 04:07:59;;;;;;;23.33;12.52;;;8.20;99.90;;;;;;5027956;28;20495;-74
2023/01/17 04:10:25;;;;;;;16.45;9.18;;;8.10;99.90;;;;;;5032369;28;20029;-72
2023/01/17 04:12:51;;;;;;;16.80;9.07;;;8.10;99.90;;;;;;5033409;28;20064;-71
2023/01/17 04:15:17;;;;;;;18.80;8.40;;;8.10;99.90;;;;;;5031427;28;20033;-74
2023/01/17 04:17:42;;;;;;;17.48;8.13;;;8.00;99.90;;;;;;5032704;28;20083;-74
2023/01/17 04:20:24;;;;;;;13.70;8.38;;;7.90;99.90;;;;;;5033282;28;20036;-74
2023/01/17 04:22:50;;;;;;;13.80;7.55;;;7.90;99.90;;;;;;5033269;28;20465;-74
2023/01/17 04:25:16;;;;;;;13.93;7.30;;;7.90;99.90;;;;;;5030451;28;20021;-74
2023/01/17 04:27:42;;;;;;;13.07;6.35;;;7.90;99.90;;;;;;5033224;28;20485;-73
2023/01/17 04:30:08;;;;;;;10.13;5.82;;;7.90;99.90;;;;;;5032781;28;20067;-73
2023/01/17 04:32:34;;;;;;;15.13;7.53;;;7.80;99.90;;;;;;5033497;28;20120;-71
2023/01/17 04:35:00;;;;;;;16.63;9.13;;;7.80;99.90;;;;;;5031501;28;20101;-71
2023/01/17 04:37:26;;;;;;;15.35;9.10;;;7.80;99.90;;;;;;5033258;28;20026;-72
2023/01/17 04:39:51;;;;;;;16.40;7.75;;;7.80;99.90;;;;;;5033139;28;20032;-72
2023/01/17 04:42:17;;;;;;;15.05;6.72;;;7.80;99.90;;;;;;5033355;28;20029;-72
2023/01/17 04:44:43;;;;;;;14.02;7.47;;;7.80;99.90;;;;;;5032895;28;20384;-72
2023/01/17 04:47:09;;;;;;;15.25;7.50;;;7.80;99.90;;;;;;5031165;28;20488;-71
2023/01/17 04:49:34;;;;;;;13.20;7.47;;;7.80;99.90;;;;;;5033085;28;20040;-72
2023/01/17 04:52:00;;;;;;;13.20;7.22;;;7.90;99.90;;;;;;5032789;28;20393;-73
2023/01/17 04:54:26;;;;;;;24.85;9.73;;;7.90;99.90;;;;;;5032656;28;20134;-71
2023/01/17 04:56:52;;;;;;;19.38;11.38;;;7.80;99.90;;;;;;5032441;28;20114;-73
2023/01/17 04:59:18;;;;;;;28.40;17.45;;;7.80;99.90;;;;;;5029999;28;20022;-71
2023/01/17 05:01:43;;;;;;;55.30;34.88;;;7.70;99.90;;;;;;5032829;28;20040;-71
2023/01/17 05:04:09;;;;;;;48.58;30.52;;;7.70;99.90;;;;;;5032867;28;20108;-71
2023/01/17 05:06:35;;;;;;;39.80;26.42;;;7.70;99.90;;;;;;5032890;28;20025;-72
2023/01/17 05:09:01;;;;;;;32.70;18.45;;;7.60;99.90;;;;;;5030928;28;20473;-72
2023/01/17 05:11:27;;;;;;;27.20;16.20;;;7.70;99.90;;;;;;5032594;28;20457;-72
2023/01/17 05:13:53;;;;;;;55.03;29.30;;;7.70;99.90;;;;;;5032688;28;20029;-72
2023/01/17 05:16:19;;;;;;;50.10;28.90;;;7.70;99.90;;;;;;5030558;28;20014;-72
2023/01/17 05:18:45;;;;;;;31.90;17.10;;;7.70;99.90;;;;;;5032872;28;20060;-71
2023/01/17 05:21:11;;;;;;;27.98;16.17;;;7.70;99.90;;;;;;5032487;28;20448;-71
2023/01/17 05:23:37;;;;;;;30.20;17.67;;;7.70;99.90;;;;;;5031311;28;20037;-72
2023/01/17 05:26:03;;;;;;;26.35;15.05;;;7.60;99.90;;;;;;5032190;28;20479;-72
2023/01/17 05:28:29;;;;;;;26.83;15.52;;;7.60;99.90;;;;;;5032192;28;20095;-72
2023/01/17 05:30:54;;;;;;;20.42;12.90;;;7.70;99.90;;;;;;5035223;28;20021;-72
2023/01/17 05:33:20;;;;;;;21.67;12.45;;;7.70;99.90;;;;;;5036579;28;20503;-72
2023/01/17 05:35:46;;;;;;;21.35;12.57;;;7.70;99.90;;;;;;5035112;28;20441;-72
2023/01/17 05:38:12;;;;;;;19.23;11.98;;;7.60;99.90;;;;;;5036223;28;20448;-72
2023/01/17 05:40:38;;;;;;;20.73;12.52;;;7.60;99.90;;;;;;5035962;28;20025;-72
2023/01/17 05:43:03;;;;;;;23.02;12.07;;;7.60;99.90;;;;;;5036250;28;20053;-74
2023/01/17 05:45:31;;;;;;;20.20;12.80;;;7.60;99.90;;;;;;5036263;28;20018;-74
2023/01/17 05:47:58;;;;;;;22.13;14.02;;;7.60;99.90;;;;;;5036118;28;20550;-74
2023/01/17 05:50:35;;;;;;;52.50;32.78;;;7.70;99.90;;;;;;5034535;28;20049;-73
2023/01/17 05:53:03;;;;;;;38.95;23.70;;;7.70;99.90;;;;;;5036240;28;20025;-74
2023/01/17 05:55:30;;;;;;;23.17;13.05;;;7.70;99.90;;;;;;5036243;28;20021;-73
2023/01/17 05:57:56;;;;;;;17.20;9.98;;;7.70;99.90;;;;;;5035804;28;20025;-73
2023/01/17 06:00:22;;;;;;;20.73;9.95;;;7.70;99.90;;;;;;5034276;28;20014;-73
2023/01/17 06:02:51;;;;;;;23.70;15.18;;;7.70;99.90;;;;;;5036035;28;20087;-72
2023/01/17 06:05:16;;;;;;;25.55;14.85;;;7.70;99.90;;;;;;5035838;28;20091;-72
2023/01/17 06:07:44;;;;;;;38.85;29.60;;;7.70;99.90;;;;;;5036042;28;20041;-72
2023/01/17 06:10:13;;;;;;;46.30;38.20;;;7.70;99.90;;;;;;5035600;28;20472;-73
2023/01/17 06:12:40;;;;;;;46.10;41.17;;;7.80;99.90;;;;;;5034599;28;20116;-72
2023/01/17 06:15:06;;;;;;;47.45;39.78;;;7.80;99.90;;;;;;5035756;28;20100;-73
2023/01/17 06:17:33;;;;;;;71.53;48.83;;;7.90;99.90;;;;;;5033816;28;20064;-72
2023/01/17 06:19:59;;;;;;;62.08;42.60;;;7.90;99.90;;;;;;5035744;28;20098;-72
2023/01/17 06:22:25;;;;;;;42.78;26.27;;;8.00;99.90;;;;;;5035430;28;20483;-73
2023/01/17 06:24:50;;;;;;;46.08;28.00;;;7.90;99.90;;;;;;5035594;28;20492;-73
2023/01/17 06:27:16;;;;;;;41.85;25.08;;;7.90;99.90;;;;;;5035151;28;20013;-72
2023/01/17 06:29:42;;;;;;;48.30;32.50;;;7.90;99.90;;;;;;5031066;28;20116;-73
2023/01/17 06:32:08;;;;;;;49.97;37.03;;;7.90;99.90;;;;;;5035092;28;20022;-72
2023/01/17 06:34:34;;;;;;;49.58;36.20;;;8.00;99.90;;;;;;5035462;28;20108;-72
2023/01/17 06:36:59;;;;;;;39.45;29.35;;;8.00;99.90;;;;;;5035268;28;20021;-72
2023/01/17 06:39:25;;;;;;;45.95;32.53;;;8.00;99.90;;;;;;5033670;28;20112;-73
2023/01/17 06:41:51;;;;;;;49.67;35.58;;;8.00;99.90;;;;;;5034765;28;20013;-73
2023/01/17 06:44:17;;;;;;;42.95;31.70;;;8.00;99.90;;;;;;5033116;28;20042;-73
2023/01/17 06:46:43;;;;;;;27.92;17.70;;;8.00;99.90;;;;;;5034575;28;20034;-73
2023/01/17 06:49:09;;;;;;;34.80;14.82;;;8.00;99.90;;;;;;5034461;28;20092;-74
2023/01/17 06:51:35;;;;;;;33.97;17.48;;;8.00;99.90;;;;;;5033913;28;20029;-73
2023/01/17 06:54:01;;;;;;;34.05;18.70;;;8.10;99.90;;;;;;5034579;28;20029;-73
2023/01/17 06:56:30;;;;;;;30.27;18.80;;;8.20;99.90;;;;;;5034849;28;20469;-72
2023/01/17 06:58:56;;;;;;;32.20;19.55;;;8.20;99.90;;;;;;5034850;28;20108;-73
2023/01/17 07:01:22;;;;;;;30.00;20.63;;;8.20;99.90;;;;;;5034762;28;20117;-73
2023/01/17 07:03:48;;;;;;;39.95;27.08;;;8.20;99.90;;;;;;5033494;28;20033;-72
2023/01/17 07:06:14;;;;;;;40.10;27.75;;;8.20;99.90;;;;;;5033062;28;20385;-76
2023/01/17 07:08:39;;;;;;;38.05;23.58;;;8.10;99.90;;;;;;5034699;28;20064;-73
2023/01/17 07:11:07;;;;;;;55.75;30.27;;;8.10;99.90;;;;;;5034835;28;20032;-75
2023/01/17 07:13:34;;;;;;;40.42;22.38;;;8.10;99.90;;;;;;5032987;28;20033;-75
2023/01/17 07:16:00;;;;;;;36.33;19.02;;;8.10;99.90;;;;;;5034508;28;20124;-74
2023/01/17 07:18:27;;;;;;;39.80;20.65;;;8.20;99.90;;;;;;5033118;28;20124;-75
2023/01/17 07:20:53;;;;;;;49.92;26.58;;;8.20;99.90;;;;;;5034596;28;20037;-76
2023/01/17 07:23:20;;;;;;;24.48;14.38;;;8.10;99.90;;;;;;5034453;28;20021;-74
2023/01/17 07:25:53;;;;;;;28.80;16.30;;;8.10;99.90;;;;;;5034460;28;20032;-75
2023/01/17 07:28:19;;;;;;;;;;;8.10;99.90;;;;;;5034444;28;20037;-74
2023/01/17 07:30:45;;;;;;;29.88;18.65;;;8.20;99.90;;;;;;5032964;28;20272;-74
2023/01/17 07:33:11;;;;;;;28.73;17.52;;;8.20;99.90;;;;;;5033956;28;20116;-74
2023/01/17 07:35:37;;;;;;;30.17;17.55;;;8.30;99.90;;;;;;5034188;28;20127;-75
2023/01/17 07:38:04;;;;;;;47.13;27.52;;;8.40;99.90;;;;;;5034353;28;20091;-75
2023/01/17 07:40:31;;;;;;;50.25;26.88;;;8.40;99.90;;;;;;5032223;28;20033;-74
2023/01/17 07:43:00;;;;;;;35.58;19.73;;;8.40;99.90;;;;;;5033934;28;20029;-74
2023/01/17 07:45:26;;;;;;;30.48;17.85;;;8.50;99.90;;;;;;5034153;28;20029;-74
2023/01/17 07:47:55;;;;;;;28.60;17.80;;;8.50;99.90;;;;;;5033576;28;20072;-74
2023/01/17 07:50:21;;;;;;;31.20;18.00;;;8.60;99.90;;;;;;5033923;28;20037;-74
2023/01/17 07:52:51;;;;;;;28.17;17.02;;;8.60;99.90;;;;;;5030225;28;20041;-75
2023/01/17 07:55:18;;;;;;;29.90;17.60;;;8.70;99.90;;;;;;5034225;28;20092;-74
2023/01/17 07:57:48;;;;;;;26.40;16.40;;;8.70;99.90;;;;;;5024074;28;20010;-74
2023/01/17 08:00:14;;;;;;;28.20;16.85;;;8.80;99.90;;;;;;5034114;28;20033;-74
2023/01/17 08:02:42;;;;;;;29.17;16.42;;;8.80;99.90;;;;;;5033761;28;20048;-73
2023/01/17 08:05:08;;;;;;;25.70;15.45;;;8.90;99.90;;;;;;5033822;28;20044;-72
2023/01/17 08:07:34;;;;;;;24.50;15.48;;;9.00;99.90;;;;;;5031871;28;20381;-72
2023/01/17 08:10:00;;;;;;;28.15;16.23;;;9.10;99.90;;;;;;5033643;28;20037;-73
2023/01/17 08:12:28;;;;;;;26.02;15.70;;;9.20;99.90;;;;;;5033559;28;20082;-73
2023/01/17 08:14:54;;;;;;;26.73;14.50;;;9.40;99.90;;;;;;5033530;28;20040;-73
2023/01/17 08:17:20;;;;;;;25.83;14.10;;;9.40;99.90;;;;;;5031837;28;20124;-72
2023/01/17 08:19:50;;;;;;;22.55;13.07;;;9.40;99.90;;;;;;5033569;28;20048;-73
2023/01/17 08:22:15;;;;;;;25.50;14.05;;;9.50;99.90;;;;;;5033316;28;20099;-72
2023/01/17 08:24:41;;;;;;;25.25;14.23;;;9.60;99.90;;;;;;5033446;28;20060;-73
2023/01/17 08:27:07;;;;;;;25.88;15.48;;;9.70;99.90;;;;;;5031630;28;20445;-73
2023/01/17 08:29:34;;;;;;;29.27;16.33;;;9.90;99.90;;;;;;5033038;28;20043;-73
2023/01/17 08:32:00;;;;;;;31.90;18.70;;;10.00;99.90;;;;;;5031408;28;20099;-75
2023/01/17 08:34:26;;;;;;;34.92;21.08;;;10.20;99.90;;;;;;5033391;28;20065;-73
2023/01/17 08:36:53;;;;;;;26.63;15.35;;;10.30;99.90;;;;;;5033132;28;20020;-73
2023/01/17 08:39:19;;;;;;;29.50;15.32;;;10.40;99.90;;;;;;5029819;28;20128;-72
2023/01/17 08:41:45;;;;;;;29.73;18.52;;;10.40;99.90;;;;;;5031985;28;20083;-73
2023/01/17 08:44:12;;;;;;;28.45;16.38;;;10.60;99.90;;;;;;5033076;28;20026;-73
2023/01/17 08:46:39;;;;;;;23.33;12.63;;;10.70;99.90;;;;;;5032250;28;20033;-73
2023/01/17 08:49:05;;;;;;;23.83;13.07;;;10.90;99.90;;;;;;5031927;28;20038;-73
2023/01/17 08:51:32;;;;;;;20.65;9.63;;;11.00;99.90;;;;;;5035016;28;20105;-73
2023/01/17 08:53:58;;;;;;;25.90;13.88;;;11.10;99.90;;;;;;5049741;28;20037;-73
2023/01/17 08:56:25;;;;;;;28.05;14.55;;;11.00;99.90;;;;;;5033070;28;20357;-73
2023/01/17 08:58:51;;;;;;;24.77;13.80;;;11.10;99.90;;;;;;5035602;28;20084;-72
2023/01/17 09:01:17;;;;;;;19.67;10.18;;;11.00;99.90;;;;;;5033360;28;20021;-73
2023/01/17 09:03:44;;;;;;;28.15;13.50;;;11.00;99.90;;;;;;5034496;28;20033;-73
2023/01/17 09:06:12;;;;;;;25.05;13.20;;;10.90;99.90;;;;;;5037818;28;20097;-73
2023/01/17 09:08:39;;;;;;;22.15;10.45;;;10.90;99.90;;;;;;5050812;28;20123;-73
2023/01/17 09:11:10;;;;;;;20.35;10.43;;;10.90;99.90;;;;;;5033746;28;20030;-73
2023/01/17 09:13:37;;;;;;;20.45;10.18;;;10.90;99.90;;;;;;5029791;28;20025;-72
2023/01/17 09:16:04;;;;;;;27.55;14.90;;;10.80;99.90;;;;;;5031125;28;20036;-73
2023/01/17 09:18:32;;;;;;;20.70;11.68;;;10.80;99.90;;;;;;5033932;28;20025;-73
2023/01/17 09:20:59;;;;;;;16.42;9.27;;;10.90;99.90;;;;;;5035428;28;20161;-73
2023/01/17 09:23:28;;;;;;;19.38;10.50;;;11.00;99.90;;;;;;5036692;28;20029;-73
2023/01/17 09:25:56;;;;;;;12.73;5.35;;;11.10;99.90;;;;;;5035055;28;20021;-73
2023/01/17 09:28:24;;;;;;;12.93;6.70;;;11.20;99.90;;;;;;5031575;28;20064;-73
2023/01/17 09:30:50;;;;;;;9.45;5.47;;;11.30;99.90;;;;;;5033304;28;20047;-72
2023/01/17 09:33:16;;;;;;;8.35;3.95;;;11.50;99.90;;;;;;5036133;28;20380;-73
2023/01/17 09:35:43;;;;;;;12.23;6.45;;;11.60;99.90;;;;;;5036401;28;20036;-73
2023/01/17 09:38:10;;;;;;;10.50;5.53;;;11.60;99.90;;;;;;5036428;28;20473;-73
2023/01/17 09:40:44;;;;;;;17.90;8.63;;;11.70;99.90;;;;;;5035636;28;20457;-73
2023/01/17 09:43:32;;;;;;;12.20;6.32;;;11.80;99.90;;;;;;5036442;28;20029;-73
2023/01/17 09:45:58;;;;;;;16.95;9.00;;;11.80;99.90;;;;;;5035212;28;20022;-73
2023/01/17 09:48:36;;;;;;;15.95;7.80;;;11.80;99.90;;;;;;5024933;28;20512;-74
2023/01/17 09:51:25;;;;;;;18.98;8.30;;;11.80;99.90;;;;;;5040166;28;20021;-74
2023/01/17 09:53:52;;;;;;;13.40;7.00;;;11.90;99.90;;;;;;5051671;28;20432;-73
2023/01/17 09:56:28;;;;;;;11.30;6.32;;;11.90;99.90;;;;;;5039727;28;20018;-76
2023/01/17 09:59:23;;;;;;;15.98;8.27;;;11.90;99.90;;;;;;5044240;28;20460;-73
2023/01/17 10:02:00;;;;;;;15.15;8.18;;;11.90;99.90;;;;;;5043188;28;20029;-73
2023/01/17 10:04:35;;;;;;;16.73;7.82;;;11.90;99.90;;;;;;5055900;28;20028;-73
2023/01/17 10:07:19;;;;;;;19.00;10.52;;;12.10;99.90;;;;;;5050451;28;20493;-74
2023/01/17 10:09:54;;;;;;;16.75;8.15;;;12.20;99.90;;;;;;5032992;28;20504;-73
2023/01/17 10:12:30;;;;;;;10.68;5.28;;;12.20;99.90;;;;;;5031885;28;20021;-73
2023/01/17 10:15:18;;;;;;;11.07;5.93;;;12.20;99.90;;;;;;5047797;28;20033;-73
2023/01/17 10:18:10;;;;;;;12.70;6.30;;;12.20;99.90;;;;;;5033375;28;20041;-73
2023/01/17 10:21:03;;;;;;;10.43;5.82;;;12.20;99.90;;;;;;5034651;28;20029;-73
2023/01/17 10:24:05;;;;;;;17.38;10.02;;;12.20;99.90;;;;;;5027435;28;20060;-74
2023/01/17 10:26:32;;;;;;;13.35;6.85;;;12.20;99.90;;;;;;5029022;28;20029;-73
2023/01/17 10:29:03;;;;;;;12.25;6.45;;;12.20;99.90;;;;;;5039981;28;20507;-73
2023/01/17 10:31:54;;;;;;;16.88;8.35;;;12.30;99.90;;;;;;5032053;28;20520;-73
2023/01/17 10:34:38;;;;;;;21.85;9.57;;;12.30;99.90;;;;;;5044759;28;20029;-73
2023/01/17 10:37:15;;;;;;;14.38;6.13;;;12.30;99.90;;;;;;5048618;28;20037;-74
2023/01/17 10:39:44;;;;;;;19.23;10.00;;;12.40;99.90;;;;;;5040781;28;20116;-73
2023/01/17 10:42:22;;;;;;;12.00;6.63;;;12.40;99.90;;;;;;5051096;28;20104;-73
2023/01/17 10:45:27;;;;;;;13.75;7.80;;;12.50;99.90;;;;;;5051967;28;20045;-73
2023/01/17 10:47:59;;;;;;;23.02;13.43;;;12.50;99.90;;;;;;4992910;28;20081;-73
2023/01/17 10:50:27;;;;;;;17.15;8.90;;;12.50;99.90;;;;;;4993135;28;20034;-73
2023/01/17 10:53:07;;;;;;;20.30;10.98;;;12.50;99.90;;;;;;4992917;28;20049;-73
2023/01/17 10:55:52;;;;;;;14.30;8.18;;;12.50;99.90;;;;;;4993526;28;20040;-73
2023/01/17 10:58:18;;;;;;;21.25;12.25;;;12.50;99.90;;;;;;4990979;28;20501;-73
2023/01/17 11:01:01;;;;;;;18.27;9.65;;;12.50;99.90;;;;;;4992548;28;20030;-73
2023/01/17 11:03:27;;;;;;;18.08;10.52;;;12.50;99.90;;;;;;4988993;28;20100;-73
2023/01/17 11:06:18;;;;;;;15.88;9.27;;;12.50;99.90;;;;;;4995937;28;20026;-73
2023/01/17 11:08:51;;;;;;;15.77;7.57;;;12.50;99.90;;;;;;4992692;28;20050;-73
2023/01/17 11:11:19;;;;;;;16.70;9.15;;;12.50;99.90;;;;;;4992636;28;20105;-73
2023/01/17 11:13:47;;;;;;;18.77;10.55;;;12.60;99.90;;;;;;4990369;28;20058;-73
2023/01/17 11:16:24;;;;;;;20.58;10.82;;;12.60;99.90;;;;;;4994884;28;20512;-73
2023/01/17 11:19:27;;;;;;;22.58;10.85;;;12.70;99.90;;;;;;4992113;28;20045;-73
2023/01/17 11:22:00;;;;;;;25.10;8.35;;;12.80;99.90;;;;;;5006103;28;20187;-73
2023/01/17 11:24:37;;;;;;;15.05;8.00;;;12.70;99.90;;;;;;5035668;28;20036;-73
2023/01/17 11:27:05;;;;;;;8.10;3.75;;;12.60;99.90;;;;;;5019642;28;20026;-73
2023/01/17 11:29:33;;;;;;;11.32;4.45;;;12.50;99.90;;;;;;5027883;28;20113;-71
2023/01/17 11:32:29;;;;;;;13.82;5.80;;;12.40;99.90;;;;;;5033726;28;20431;-73
2023/01/17 11:35:16;;;;;;;11.27;5.68;;;12.30;99.90;;;;;;5031302;28;20021;-73
2023/01/17 11:38:01;;;;;;;11.93;6.00;;;12.10;99.90;;;;;;5026694;28;20044;-73
2023/01/17 11:40:44;;;;;;;13.02;6.50;;;12.00;99.90;;;;;;5033289;28;20410;-73
2023/01/17 11:43:10;;;;;;;9.60;5.53;;;11.90;99.90;;;;;;5032409;28;20465;-73
2023/01/17 11:45:36;;;;;;;12.38;5.15;;;11.90;99.90;;;;;;5034004;28;20087;-73
2023/01/17 11:48:11;;;;;;;13.80;7.07;;;11.80;99.90;;;;;;5033518;28;20053;-73
2023/01/17 11:50:40;;;;;;;17.10;6.53;;;11.70;99.90;;;;;;5033856;28;20559;-73
2023/01/17 11:53:25;;;;;;;17.05;10.13;;;11.70;99.90;;;;;;5030669;28;20545;-73
2023/01/17 11:56:04;;;;;;;12.18;6.60;;;11.60;99.90;;;;;;5032362;28;20040;-73
2023/01/17 11:58:33;;;;;;;15.82;7.13;;;11.50;99.90;;;;;;5032989;28;20108;-73
2023/01/17 12:01:06;;;;;;;16.13;6.97;;;11.40;99.90;;;;;;5037309;28;20036;-72
2023/01/17 12:04:02;;;;;;;18.60;7.13;;;11.40;99.90;;;;;;5023328;28;20099;-72
2023/01/17 12:06:36;;;;;;;17.17;7.85;;;11.30;99.90;;;;;;5031573;28;20021;-73
2023/01/17 12:09:32;;;;;;;13.65;6.32;;;11.30;99.90;;;;;;5033633;28;20120;-73
2023/01/17 12:15:15;;;;;;;18.15;8.20;;;11.20;99.90;;;;;;5032723;28;20037;-73
2023/01/17 12:18:04;;;;;;;21.05;11.68;;;11.10;99.90;;;;;;5033131;28;20033;-73
2023/01/17 12:20:51;;;;;;;23.35;10.40;;;11.10;99.90;;;;;;5034010;28;20025;-72
2023/01/17 12:23:32;;;;;;;17.70;8.43;;;11.10;99.90;;;;;;5028950;28;20074;-73
2023/01/17 12:26:27;;;;;;;16.02;7.63;;;11.10;99.90;;;;;;5030020;28;20032;-73
2023/01/17 12:29:04;;;;;;;15.15;6.80;;;11.10;99.90;;;;;;5008950;28;20046;-72
2023/01/17 12:32:20;;;;;;;16.75;7.90;;;11.10;99.90;;;;;;5010925;28;20041;-72
2023/01/17 12:34:56;;;;;;;20.45;9.57;;;11.10;99.90;;;;;;4933306;29;20040;-73
2023/01/17 12:37:25;;;;;;;20.70;9.40;;;11.10;99.90;;;;;;4933848;29;20058;-73
2023/01/17 12:39:59;;;;;;;20.02;9.20;;;11.20;99.90;;;;;;4933009;28;20094;-72
2023/01/17 12:42:34;;;;;;;20.40;9.00;;;11.20;99.90;;;;;;4933679;29;20020;-73
2023/01/17 12:45:30;;;;;;;22.90;10.55;;;11.20;99.90;;;;;;4933898;29;20424;-73
2023/01/17 12:48:05;;;;;;;24.38;12.70;;;11.20;99.90;;;;;;4933073;29;20055;-73
2023/01/17 12:50:43;;;;;;;14.73;6.60;;;11.20;99.90;;;;;;4932879;29;20047;-73
2023/01/17 12:53:33;;;;;;;18.48;8.60;;;11.30;99.90;;;;;;4933141;29;20506;-74
2023/01/17 12:56:07;;;;;;;15.32;7.30;;;11.40;99.90;;;;;;4933526;29;20092;-73
2023/01/17 12:58:40;;;;;;;18.38;7.95;;;11.40;99.90;;;;;;4933512;29;20427;-73
2023/01/17 13:01:28;;;;;;;14.30;7.05;;;11.50;99.90;;;;;;4933575;29;20034;-73
2023/01/17 13:04:25;;;;;;;12.73;5.40;;;11.50;99.90;;;;;;4933419;29;20043;-73
2023/01/17 13:07:14;;;;;;;20.00;7.35;;;11.60;99.90;;;;;;4944581;28;20047;-72
2023/01/17 13:09:49;;;;;;;18.15;7.70;;;11.60;99.90;;;;;;4979675;28;20520;-73
2023/01/17 13:12:18;;;;;;;17.83;9.13;;;11.60;99.90;;;;;;5033408;28;20045;-73
2023/01/17 13:14:47;;;;;;;28.35;14.57;;;11.60;99.90;;;;;;5038590;28;20025;-72
2023/01/17 13:17:37;;;;;;;19.83;8.82;;;11.60;99.90;;;;;;5035681;28;20059;-73
2023/01/17 13:20:27;;;;;;;17.65;7.55;;;11.60;99.90;;;;;;5034146;28;20072;-73
2023/01/17 13:23:02;;;;;;;16.27;8.48;;;11.60;99.90;;;;;;5031996;28;20026;-72
2023/01/17 13:25:37;;;;;;;19.70;6.78;;;11.60;99.90;;;;;;5034446;28;20540;-72
2023/01/17 13:28:21;;;;;;;20.63;6.82;;;11.60;99.90;;;;;;5040798;28;20033;-72
2023/01/17 13:30:52;;;;;;;15.35;6.95;;;11.60;99.90;;;;;;5036764;28;20025;-72
2023/01/17 13:33:56;;;;;;;27.17;14.23;;;11.60;99.90;;;;;;5031959;28;20025;-72
2023/01/17 13:36:38;;;;;;;19.67;10.00;;;11.60;99.90;;;;;;5032661;28;20060;-72
2023/01/17 13:39:20;;;;;;;11.70;5.25;;;11.60;99.90;;;;;;5032742;28;20048;-72
2023/01/17 13:41:53;;;;;;;9.93;4.63;;;11.60;99.90;;;;;;5032755;28;20053;-72
2023/01/17 13:44:24;;;;;;;13.40;6.47;;;11.60;99.90;;;;;;5032491;28;20034;-72
2023/01/17 13:47:01;;;;;;;13.45;7.13;;;11.60;99.90;;;;;;5032546;28;20364;-72
2023/01/17 13:49:34;;;;;;;20.77;9.73;;;11.60;99.90;;;;;;5032496;28;20056;-72
2023/01/17 13:52:10;;;;;;;22.83;8.85;;;11.60;99.90;;;;;;5035257;28;20030;-73
2023/01/17 13:54:53;;;;;;;13.18;5.93;;;11.70;99.90;;;;;;5035989;28;20078;-72
2023/01/17 13:57:25;;;;;;;16.05;7.32;;;11.70;99.90;;;;;;5036246;28;20366;-72
2023/01/17 13:59:52;;;;;;;11.32;5.03;;;11.70;99.90;;;;;;5036133;28;20022;-72
2023/01/17 14:02:35;;;;;;;11.00;5.80;;;11.70;99.90;;;;;;5035923;28;20155;-72
2023/01/17 14:05:19;;;;;;;10.48;5.13;;;11.70;99.90;;;;;;5036038;28;20091;-72
2023/01/17 14:07:47;;;;;;;12.70;5.03;;;11.70;99.90;;;;;;5035836;28;20091;-73
2023/01/17 14:10:35;;;;;;;13.57;6.57;;;11.70;99.90;;;;;;5035750;28;20069;-72
2023/01/17 14:13:02;;;;;;;16.92;8.32;;;11.80;99.90;;;;;;5024180;28;20029;-72
2023/01/17 14:15:31;;;;;;;27.75;14.15;;;11.80;99.90;;;;;;5035441;28;20043;-72
2023/01/17 14:18:01;;;;;;;31.33;14.25;;;11.80;99.90;;;;;;5036064;28;20026;-72
2023/01/17 14:20:36;;;;;;;31.35;16.60;;;11.80;99.90;;;;;;5035547;28;20485;-72
2023/01/17 14:23:16;;;;;;;17.38;9.52;;;11.80;99.90;;;;;;5035883;28;20037;-73
2023/01/17 14:25:43;;;;;;;21.42;10.05;;;11.80;99.90;;;;;;5035833;28;20033;-73